Private Wetterstation Sandau
Wetterdaten: Sonntag, 08.04.2012
Datum Zeit Temp. A. Feuchte A. Luftdruck Regen Wind Richtung Richtung Taupunkt Windchill
08.04.2012 00:01 1,0 C 74 % 1008,8 hPa 0,0 l/m 0,0 km/h (0 Bft) NW 315 -3,1 C 1,0 C
08.04.2012 00:06 0,9 C 74 % 1009,0 hPa 0,0 l/m 1,8 km/h (1 Bft) O-NO 67 -3,2 C 0,9 C
08.04.2012 00:11 0,9 C 75 % 1009,0 hPa 0,0 l/m 5,0 km/h (1 Bft) NW 315 -3,0 C -0,6 C
08.04.2012 00:16 0,8 C 75 % 1009,0 hPa 0,0 l/m 5,8 km/h (2 Bft) N 360 -3,1 C -1,0 C
08.04.2012 00:21 0,8 C 75 % 1009,0 hPa 0,0 l/m 3,2 km/h (1 Bft) NW 315 -3,1 C 0,8 C
08.04.2012 00:26 0,8 C 75 % 1009,1 hPa 0,0 l/m 2,5 km/h (1 Bft) W-NW 292 -3,1 C 0,8 C
08.04.2012 00:31 0,7 C 75 % 1009,2 hPa 0,0 l/m 0,0 km/h (0 Bft) N 360 -3,2 C 0,7 C
08.04.2012 00:36 0,7 C 75 % 1009,0 hPa 0,0 l/m 4,7 km/h (1 Bft) N 360 -3,2 C -0,7 C
08.04.2012 00:41 0,6 C 75 % 1009,1 hPa 0,0 l/m 3,6 km/h (1 Bft) W 270 -3,3 C 0,6 C
08.04.2012 00:46 0,6 C 74 % 1009,2 hPa 0,0 l/m 0,0 km/h (0 Bft) N-NW 337 -3,5 C 0,6 C
08.04.2012 00:51 0,6 C 74 % 1009,2 hPa 0,0 l/m 2,2 km/h (1 Bft) W-NW 292 -3,5 C 0,6 C
08.04.2012 00:56 0,6 C 74 % 1009,3 hPa 0,0 l/m 2,5 km/h (1 Bft) N 360 -3,5 C 0,6 C
08.04.2012 01:01 0,5 C 74 % 1009,4 hPa 0,0 l/m 5,0 km/h (1 Bft) W-NW 292 -3,6 C -1,0 C
08.04.2012 01:06 0,5 C 74 % 1009,2 hPa 0,0 l/m 9,4 km/h (2 Bft) W 270 -3,6 C -2,6 C
08.04.2012 01:11 0,4 C 74 % 1009,3 hPa 0,0 l/m 3,6 km/h (1 Bft) W-NW 292 -3,7 C 0,4 C
08.04.2012 01:16 0,4 C 74 % 1009,5 hPa 0,0 l/m 0,0 km/h (0 Bft) N 360 -3,7 C 0,4 C
08.04.2012 01:21 0,4 C 74 % 1009,4 hPa 0,0 l/m 2,9 km/h (1 Bft) NW 315 -3,7 C 0,4 C
08.04.2012 01:26 0,3 C 74 % 1009,5 hPa 0,0 l/m 2,5 km/h (1 Bft) NW 315 -3,8 C 0,3 C
08.04.2012 01:31 0,3 C 74 % 1009,6 hPa 0,0 l/m 5,8 km/h (2 Bft) W-NW 292 -3,8 C -1,6 C
08.04.2012 01:36 0,3 C 74 % 1009,7 hPa 0,0 l/m 0,0 km/h (0 Bft) W-NW 292 -3,8 C 0,3 C
08.04.2012 01:41 0,3 C 74 % 1009,6 hPa 0,0 l/m 0,0 km/h (0 Bft) W-NW 292 -3,8 C 0,3 C
08.04.2012 01:46 0,2 C 74 % 1009,6 hPa 0,0 l/m 6,5 km/h (2 Bft) NW 315 -3,9 C -2,0 C
08.04.2012 01:51 0,1 C 74 % 1009,7 hPa 0,0 l/m 3,2 km/h (1 Bft) W-NW 292 -4,0 C 0,1 C
08.04.2012 01:56 0,1 C 74 % 1009,7 hPa 0,0 l/m 2,5 km/h (1 Bft) W 270 -4,0 C 0,1 C
08.04.2012 02:01 0,1 C 74 % 1009,6 hPa 0,0 l/m 2,2 km/h (1 Bft) NW 315 -4,0 C 0,1 C
08.04.2012 02:06 0,1 C 74 % 1009,8 hPa 0,0 l/m 0,0 km/h (0 Bft) W-NW 292 -4,0 C 0,1 C
08.04.2012 02:11 -0,1 C 74 % 1009,8 hPa 0,0 l/m 2,5 km/h (1 Bft) NW 315 -4,2 C -0,1 C
08.04.2012 02:16 -0,1 C 74 % 1009,7 hPa 0,0 l/m 2,2 km/h (1 Bft) W-NW 292 -4,2 C -0,1 C
08.04.2012 02:21 -0,1 C 74 % 1009,8 hPa 0,0 l/m 1,4 km/h (1 Bft) N 360 -4,2 C -0,1 C
08.04.2012 02:26 -0,2 C 74 % 1009,8 hPa 0,0 l/m 4,0 km/h (1 Bft) N-NW 337 -4,3 C -0,2 C
08.04.2012 02:31 -0,2 C 74 % 1009,8 hPa 0,0 l/m 4,3 km/h (1 Bft) W-NW 292 -4,3 C -0,2 C
08.04.2012 02:36 -0,2 C 74 % 1009,9 hPa 0,0 l/m 0,0 km/h (0 Bft) W-SW 247 -4,3 C -0,2 C
08.04.2012 02:41 -0,2 C 74 % 1009,9 hPa 0,0 l/m 2,9 km/h (1 Bft) N-NO 22 -4,3 C -0,2 C
08.04.2012 02:46 -0,2 C 73 % 1009,9 hPa 0,0 l/m 0,0 km/h (0 Bft) NW 315 -4,4 C -0,2 C
08.04.2012 02:51 -0,2 C 73 % 1010,0 hPa 0,0 l/m 9,4 km/h (2 Bft) W 270 -4,4 C -3,4 C
08.04.2012 02:56 -0,4 C 74 % 1010,1 hPa 0,0 l/m 3,6 km/h (1 Bft) N-NW 337 -4,5 C -0,4 C
08.04.2012 03:01 -0,4 C 74 % 1009,9 hPa 0,0 l/m 6,1 km/h (2 Bft) W-NW 292 -4,5 C -2,5 C
08.04.2012 03:06 -0,5 C 74 % 1009,9 hPa 0,0 l/m 3,2 km/h (1 Bft) N-NW 337 -4,5 C -0,5 C
08.04.2012 03:11 -0,5 C 74 % 1010,1 hPa 0,0 l/m 4,0 km/h (1 Bft) NW 315 -4,5 C -0,5 C
08.04.2012 03:16 -0,5 C 74 % 1010,2 hPa 0,0 l/m 3,2 km/h (1 Bft) NW 315 -4,5 C -0,5 C
08.04.2012 03:21 -0,6 C 75 % 1010,2 hPa 0,0 l/m 4,0 km/h (1 Bft) N-NW 337 -4,5 C -0,6 C
08.04.2012 03:26 -0,7 C 75 % 1010,2 hPa 0,0 l/m 4,0 km/h (1 Bft) W-NW 292 -4,6 C -0,7 C
08.04.2012 03:31 -0,7 C 75 % 1010,2 hPa 0,0 l/m 6,1 km/h (2 Bft) W-NW 292 -4,6 C -2,9 C
08.04.2012 03:36 -0,8 C 75 % 1010,4 hPa 0,0 l/m 5,0 km/h (1 Bft) N 360 -4,7 C -2,5 C
08.04.2012 03:41 -0,9 C 75 % 1010,4 hPa 0,0 l/m 4,3 km/h (1 Bft) N 360 -4,8 C -0,9 C
08.04.2012 03:46 -0,9 C 75 % 1010,4 hPa 0,0 l/m 3,2 km/h (1 Bft) NW 315 -4,8 C -0,9 C
08.04.2012 03:51 -1,0 C 75 % 1010,3 hPa 0,0 l/m 6,1 km/h (2 Bft) NW 315 -4,9 C -3,2 C
08.04.2012 03:56 -1,0 C 75 % 1010,3 hPa 0,0 l/m 3,2 km/h (1 Bft) W-NW 292 -4,9 C -1,0 C
08.04.2012 04:01 -1,0 C 75 % 1010,3 hPa 0,0 l/m 2,9 km/h (1 Bft) NW 315 -4,9 C -1,0 C
08.04.2012 04:06 -1,1 C 75 % 1010,5 hPa 0,0 l/m 7,6 km/h (2 Bft) NW 315 -5,0 C -3,9 C
08.04.2012 04:11 -1,1 C 76 % 1010,5 hPa 0,0 l/m 4,7 km/h (1 Bft) N-NW 337 -4,8 C -2,7 C
08.04.2012 04:16 -1,1 C 76 % 1010,6 hPa 0,0 l/m 0,0 km/h (0 Bft) N-NW 337 -4,8 C -1,1 C
08.04.2012 04:21 -1,1 C 76 % 1010,6 hPa 0,0 l/m 8,6 km/h (2 Bft) W-NW 292 -4,8 C -4,2 C
08.04.2012 04:26 -1,2 C 76 % 1010,7 hPa 0,0 l/m 2,5 km/h (1 Bft) NW 315 -4,9 C -1,2 C
08.04.2012 04:31 -1,1 C 76 % 1010,7 hPa 0,0 l/m 5,4 km/h (1 Bft) NW 315 -4,8 C -3,0 C
08.04.2012 04:36 -1,1 C 76 % 1010,6 hPa 0,0 l/m 2,5 km/h (1 Bft) N-NW 337 -4,8 C -1,1 C
08.04.2012 04:41 -1,1 C 76 % 1010,7 hPa 0,0 l/m 4,7 km/h (1 Bft) W-NW 292 -4,8 C -2,7 C
08.04.2012 04:46 -1,2 C 76 % 1010,6 hPa 0,0 l/m 4,0 km/h (1 Bft) W-NW 292 -4,9 C -1,2 C
08.04.2012 04:51 -1,2 C 76 % 1010,7 hPa 0,0 l/m 3,2 km/h (1 Bft) NW 315 -4,9 C -1,2 C
08.04.2012 04:56 -1,2 C 76 % 1010,7 hPa 0,0 l/m 5,8 km/h (2 Bft) NW 315 -4,9 C -3,3 C
08.04.2012 05:01 -1,2 C 76 % 1010,6 hPa 0,0 l/m 0,0 km/h (0 Bft) NW 315 -4,9 C -1,2 C
08.04.2012 05:06 -1,2 C 76 % 1010,6 hPa 0,0 l/m 5,0 km/h (1 Bft) N-NW 337 -4,9 C -3,0 C
08.04.2012 05:11 -1,2 C 76 % 1010,8 hPa 0,0 l/m 4,0 km/h (1 Bft) NW 315 -4,9 C -1,2 C
08.04.2012 05:16 -1,3 C 76 % 1010,9 hPa 0,0 l/m 2,9 km/h (1 Bft) N-NW 337 -5,0 C -1,3 C
08.04.2012 05:21 -1,3 C 76 % 1010,8 hPa 0,0 l/m 2,9 km/h (1 Bft) O-NO 67 -5,0 C -1,3 C
08.04.2012 05:26 -1,3 C 76 % 1011,0 hPa 0,0 l/m 1,1 km/h (1 Bft) N 360 -5,0 C -1,3 C
08.04.2012 05:31 -1,3 C 76 % 1010,8 hPa 0,0 l/m 4,7 km/h (1 Bft) NW 315 -5,0 C -2,9 C
08.04.2012 05:36 -1,3 C 76 % 1010,9 hPa 0,0 l/m 4,0 km/h (1 Bft) W-NW 292 -5,0 C -1,3 C
08.04.2012 05:41 -1,3 C 77 % 1010,9 hPa 0,0 l/m 6,8 km/h (2 Bft) N-NW 337 -4,8 C -3,8 C
08.04.2012 05:46 -1,4 C 76 % 1011,0 hPa 0,0 l/m 2,5 km/h (1 Bft) NW 315 -5,1 C -1,4 C
08.04.2012 05:51 -1,4 C 77 % 1011,0 hPa 0,0 l/m 3,6 km/h (1 Bft) W-NW 292 -4,9 C -1,4 C
08.04.2012 05:56 -1,5 C 77 % 1011,1 hPa 0,0 l/m 6,5 km/h (2 Bft) W-NW 292 -5,0 C -4,0 C
08.04.2012 06:01 -1,6 C 77 % 1011,1 hPa 0,0 l/m 2,2 km/h (1 Bft) W-NW 292 -5,1 C -1,6 C
08.04.2012 06:06 -1,7 C 77 % 1011,2 hPa 0,0 l/m 5,0 km/h (1 Bft) NW 315 -5,2 C -3,5 C
08.04.2012 06:11 -1,8 C 77 % 1011,2 hPa 0,0 l/m 0,0 km/h (0 Bft) NW 315 -5,3 C -1,8 C
08.04.2012 06:16 -1,9 C 77 % 1011,1 hPa 0,0 l/m 4,0 km/h (1 Bft) NW 315 -5,4 C -1,9 C
08.04.2012 06:21 -1,9 C 77 % 1011,3 hPa 0,0 l/m 4,7 km/h (1 Bft) N-NW 337 -5,4 C -3,6 C
08.04.2012 06:26 -2,0 C 78 % 1011,5 hPa 0,0 l/m 0,0 km/h (0 Bft) NW 315 -5,3 C -2,0 C
08.04.2012 06:31 -2,1 C 78 % 1011,6 hPa 0,0 l/m 4,0 km/h (1 Bft) N-NW 337 -5,4 C -2,1 C
08.04.2012 06:36 -2,1 C 78 % 1011,6 hPa 0,0 l/m 1,4 km/h (1 Bft) NW 315 -5,4 C -2,1 C
08.04.2012 06:41 -2,1 C 78 % 1011,7 hPa 0,0 l/m 4,0 km/h (1 Bft) N-NW 337 -5,4 C -2,1 C
08.04.2012 06:46 -1,9 C 78 % 1011,9 hPa 0,0 l/m 4,3 km/h (1 Bft) NW 315 -5,2 C -1,9 C
08.04.2012 06:51 -1,8 C 78 % 1011,7 hPa 0,0 l/m 2,9 km/h (1 Bft) NW 315 -5,1 C -1,8 C
08.04.2012 06:56 -1,8 C 78 % 1011,8 hPa 0,0 l/m 3,6 km/h (1 Bft) NW 315 -5,1 C -1,8 C
08.04.2012 07:01 -1,9 C 78 % 1012,0 hPa 0,0 l/m 3,2 km/h (1 Bft) NW 315 -5,2 C -1,9 C
08.04.2012 07:06 -1,9 C 78 % 1012,0 hPa 0,0 l/m 2,2 km/h (1 Bft) NW 315 -5,2 C -1,9 C
08.04.2012 07:11 -1,9 C 78 % 1012,1 hPa 0,0 l/m 6,8 km/h (2 Bft) N 360 -5,2 C -4,5 C
08.04.2012 07:16 -1,9 C 79 % 1012,2 hPa 0,0 l/m 1,1 km/h (1 Bft) W-NW 292 -5,0 C -1,9 C
08.04.2012 07:21 -1,8 C 79 % 1012,1 hPa 0,0 l/m 2,5 km/h (1 Bft) W 270 -4,9 C -1,8 C
08.04.2012 07:26 -1,7 C 78 % 1012,4 hPa 0,0 l/m 2,5 km/h (1 Bft) NW 315 -5,0 C -1,7 C
08.04.2012 07:31 -1,7 C 78 % 1012,4 hPa 0,0 l/m 0,0 km/h (0 Bft) N-NO 22 -5,0 C -1,7 C
08.04.2012 07:36 -1,6 C 78 % 1012,5 hPa 0,0 l/m 2,5 km/h (1 Bft) NW 315 -4,9 C -1,6 C
08.04.2012 07:41 -1,6 C 78 % 1012,6 hPa 0,0 l/m 1,8 km/h (1 Bft) NW 315 -4,9 C -1,6 C
08.04.2012 07:46 -1,6 C 78 % 1012,6 hPa 0,0 l/m 0,0 km/h (0 Bft) N 360 -4,9 C -1,6 C
08.04.2012 07:51 -1,4 C 78 % 1012,8 hPa 0,0 l/m 1,1 km/h (1 Bft) N 360 -4,7 C -1,4 C
08.04.2012 07:56 -1,3 C 78 % 1012,7 hPa 0,0 l/m 4,7 km/h (1 Bft) NO 45 -4,6 C -2,9 C
08.04.2012 08:01 -1,1 C 78 % 1012,9 hPa 0,0 l/m 3,2 km/h (1 Bft) NO 45 -4,4 C -1,1 C
08.04.2012 08:06 -0,8 C 78 % 1012,9 hPa 0,0 l/m 3,2 km/h (1 Bft) N-NO 22 -4,1 C -0,8 C
08.04.2012 08:11 -0,6 C 78 % 1013,0 hPa 0,0 l/m 2,9 km/h (1 Bft) W-NW 292 -3,9 C -0,6 C
08.04.2012 08:16 -0,3 C 77 % 1013,1 hPa 0,0 l/m 0,0 km/h (0 Bft) NO 45 -3,8 C -0,3 C
08.04.2012 08:21 -0,1 C 77 % 1013,1 hPa 0,0 l/m 4,7 km/h (1 Bft) O-NO 67 -3,6 C -1,6 C
08.04.2012 08:26 0,1 C 76 % 1013,2 hPa 0,0 l/m 3,2 km/h (1 Bft) N-NO 22 -3,6 C 0,1 C
08.04.2012 08:31 0,3 C 76 % 1013,2 hPa 0,0 l/m 4,7 km/h (1 Bft) NW 315 -3,4 C -1,1 C
08.04.2012 08:36 0,4 C 75 % 1013,4 hPa 0,0 l/m 2,5 km/h (1 Bft) N-NO 22 -3,5 C 0,4 C
08.04.2012 08:41 0,6 C 75 % 1013,4 hPa 0,0 l/m 6,5 km/h (2 Bft) NO 45 -3,3 C -1,5 C
08.04.2012 08:46 0,9 C 74 % 1013,5 hPa 0,0 l/m 3,2 km/h (1 Bft) NO 45 -3,2 C 0,9 C
08.04.2012 08:51 1,0 C 73 % 1013,5 hPa 0,0 l/m 8,3 km/h (2 Bft) O-NO 67 -3,3 C -1,7 C
08.04.2012 08:56 1,2 C 73 % 1013,5 hPa 0,0 l/m 6,8 km/h (2 Bft) N-NO 22 -3,1 C -0,9 C
08.04.2012 09:01 1,3 C 72 % 1013,7 hPa 0,0 l/m 10,1 km/h (2 Bft) NO 45 -3,2 C -1,8 C
08.04.2012 09:06 1,3 C 71 % 1013,7 hPa 0,0 l/m 6,5 km/h (2 Bft) NW 315 -3,4 C -0,7 C
08.04.2012 09:11 1,3 C 71 % 1013,7 hPa 0,0 l/m 10,1 km/h (2 Bft) W 270 -3,4 C -1,8 C
08.04.2012 09:16 1,6 C 71 % 1013,8 hPa 0,0 l/m 11,2 km/h (2 Bft) NO 45 -3,1 C -1,7 C
08.04.2012 09:21 1,6 C 71 % 1013,7 hPa 0,0 l/m 4,3 km/h (1 Bft) NO 45 -3,1 C 1,6 C
08.04.2012 09:26 1,8 C 70 % 1013,9 hPa 0,0 l/m 11,2 km/h (2 Bft) N-NO 22 -3,1 C -1,4 C
08.04.2012 09:31 1,9 C 70 % 1014,0 hPa 0,0 l/m 2,9 km/h (1 Bft) N 360 -3,0 C 1,9 C
08.04.2012 09:36 2,2 C 70 % 1014,0 hPa 0,0 l/m 2,2 km/h (1 Bft) W 270 -2,7 C 2,2 C
08.04.2012 09:41 2,3 C 70 % 1014,0 hPa 0,0 l/m 5,8 km/h (2 Bft) NO 45 -2,6 C 0,7 C
08.04.2012 09:46 2,4 C 70 % 1014,1 hPa 0,0 l/m 5,8 km/h (2 Bft) NW 315 -2,5 C 0,8 C
08.04.2012 09:51 2,6 C 69 % 1014,0 hPa 0,0 l/m 5,4 km/h (1 Bft) N 360 -2,5 C 1,2 C
08.04.2012 09:56 2,8 C 68 % 1014,1 hPa 0,0 l/m 1,4 km/h (1 Bft) NO 45 -2,5 C 2,8 C
08.04.2012 10:01 3,0 C 68 % 1014,2 hPa 0,0 l/m 2,5 km/h (1 Bft) NW 315 -2,3 C 3,0 C
08.04.2012 10:06 3,2 C 67 % 1014,3 hPa 0,0 l/m 5,0 km/h (1 Bft) N 360 -2,3 C 2,0 C
08.04.2012 10:11 3,4 C 65 % 1014,3 hPa 0,0 l/m 5,8 km/h (2 Bft) NO 45 -2,5 C 2,0 C
08.04.2012 10:16 3,4 C 63 % 1014,6 hPa 0,0 l/m 7,6 km/h (2 Bft) N 360 -3,0 C 1,4 C
08.04.2012 10:21 3,5 C 60 % 1014,5 hPa 0,0 l/m 9,4 km/h (2 Bft) N-NO 22 -3,5 C 1,0 C
08.04.2012 10:26 3,6 C 60 % 1014,6 hPa 0,0 l/m 5,0 km/h (1 Bft) N 360 -3,4 C 2,5 C
08.04.2012 10:31 3,8 C 59 % 1014,6 hPa 0,0 l/m 10,4 km/h (2 Bft) NO 45 -3,5 C 1,1 C
08.04.2012 10:36 3,9 C 56 % 1014,8 hPa 0,0 l/m 9,0 km/h (2 Bft) NO 45 -4,1 C 1,6 C
08.04.2012 10:41 3,9 C 54 % 1014,8 hPa 0,0 l/m 10,1 km/h (2 Bft) O-NO 67 -4,5 C 1,3 C
08.04.2012 10:46 3,9 C 53 % 1014,8 hPa 0,0 l/m 10,8 km/h (2 Bft) NO 45 -4,8 C 1,2 C
08.04.2012 10:51 4,0 C 52 % 1014,9 hPa 0,0 l/m 5,8 km/h (2 Bft) O-NO 67 -4,9 C 2,6 C
08.04.2012 10:56 4,1 C 52 % 1014,9 hPa 0,0 l/m 7,6 km/h (2 Bft) N-NO 22 -4,9 C 2,2 C
08.04.2012 11:01 4,4 C 53 % 1014,8 hPa 0,0 l/m 3,6 km/h (1 Bft) O-NO 67 -4,3 C 4,4 C
08.04.2012 11:06 4,6 C 51 % 1014,7 hPa 0,0 l/m 12,2 km/h (2 Bft) N-NO 22 -4,6 C 1,7 C
08.04.2012 11:11 4,8 C 47 % 1015,0 hPa 0,0 l/m 13,0 km/h (3 Bft) O 90 -5,5 C 1,8 C
08.04.2012 11:16 4,8 C 47 % 1015,0 hPa 0,0 l/m 9,7 km/h (2 Bft) O-NO 67 -5,5 C 2,5 C
08.04.2012 11:21 4,9 C 49 % 1014,9 hPa 0,0 l/m 1,4 km/h (1 Bft) S-SO 157 -4,9 C 4,9 C
08.04.2012 11:26 5,1 C 47 % 1014,8 hPa 0,0 l/m 8,6 km/h (2 Bft) N-NO 22 -5,3 C 3,1 C
08.04.2012 11:31 5,1 C 48 % 1014,8 hPa 0,0 l/m 2,2 km/h (1 Bft) O 90 -5,0 C 5,1 C
08.04.2012 11:36 5,3 C 47 % 1015,0 hPa 0,0 l/m 2,5 km/h (1 Bft) NO 45 -5,1 C 5,3 C
08.04.2012 11:41 5,4 C 47 % 1014,9 hPa 0,0 l/m 3,6 km/h (1 Bft) NW 315 -5,0 C 5,4 C
08.04.2012 11:46 5,6 C 46 % 1015,0 hPa 0,0 l/m 6,1 km/h (2 Bft) NO 45 -5,1 C 4,4 C
08.04.2012 11:51 5,7 C 46 % 1014,8 hPa 0,0 l/m 6,8 km/h (2 Bft) N-NO 22 -5,0 C 4,3 C
08.04.2012 11:56 5,8 C 46 % 1014,9 hPa 0,0 l/m 3,6 km/h (1 Bft) N-NW 337 -4,9 C 5,8 C
08.04.2012 12:01 5,9 C 45 % 1014,9 hPa 0,0 l/m 10,1 km/h (2 Bft) NO 45 -5,1 C 3,7 C
08.04.2012 12:06 5,7 C 44 % 1014,9 hPa 0,0 l/m 5,0 km/h (1 Bft) N-NO 22 -5,6 C 4,9 C
08.04.2012 12:11 5,5 C 44 % 1014,9 hPa 0,0 l/m 3,6 km/h (1 Bft) W-NW 292 -5,8 C 5,5 C
08.04.2012 12:16 5,6 C 45 % 1014,8 hPa 0,0 l/m 6,1 km/h (2 Bft) W 270 -5,4 C 4,4 C
08.04.2012 12:21 5,8 C 46 % 1015,0 hPa 0,0 l/m 3,2 km/h (1 Bft) N-NO 22 -4,9 C 5,8 C
08.04.2012 12:26 5,6 C 44 % 1014,9 hPa 0,0 l/m 5,0 km/h (1 Bft) N-NO 22 -5,7 C 4,8 C
08.04.2012 12:31 5,4 C 44 % 1014,9 hPa 0,0 l/m 3,6 km/h (1 Bft) W-NW 292 -5,9 C 5,4 C
08.04.2012 12:36 5,5 C 44 % 1015,0 hPa 0,0 l/m 7,6 km/h (2 Bft) O-SO 112 -5,8 C 3,8 C
08.04.2012 12:41 5,6 C 43 % 1014,9 hPa 0,0 l/m 7,6 km/h (2 Bft) N 360 -6,0 C 3,9 C
08.04.2012 12:46 5,8 C 41 % 1014,9 hPa 0,0 l/m 2,5 km/h (1 Bft) O-NO 67 -6,4 C 5,8 C
08.04.2012 12:51 5,8 C 42 % 1014,9 hPa 0,0 l/m 0,0 km/h (0 Bft) W 270 -6,1 C 5,8 C
08.04.2012 12:56 6,0 C 41 % 1014,8 hPa 0,0 l/m 6,8 km/h (2 Bft) N-NO 22 -6,2 C 4,6 C
08.04.2012 13:01 6,1 C 41 % 1014,8 hPa 0,0 l/m 5,0 km/h (1 Bft) W 270 -6,1 C 5,3 C
08.04.2012 13:06 6,5 C 41 % 1014,9 hPa 0,0 l/m 3,2 km/h (1 Bft) NO 45 -5,8 C 6,5 C
08.04.2012 13:11 6,8 C 41 % 1014,8 hPa 0,0 l/m 6,5 km/h (2 Bft) W-NW 292 -5,5 C 5,6 C
08.04.2012 13:16 6,8 C 40 % 1015,0 hPa 0,0 l/m 6,5 km/h (2 Bft) N-NW 337 -5,8 C 5,6 C
08.04.2012 13:21 6,4 C 41 % 1014,9 hPa 0,0 l/m 7,6 km/h (2 Bft) N-NW 337 -5,9 C 4,9 C
08.04.2012 13:26 6,2 C 42 % 1014,8 hPa 0,0 l/m 2,9 km/h (1 Bft) W-NW 292 -5,7 C 6,2 C
08.04.2012 13:31 6,5 C 43 % 1015,0 hPa 0,0 l/m 8,6 km/h (2 Bft) W-SW 247 -5,2 C 4,8 C
08.04.2012 13:36 6,8 C 43 % 1014,9 hPa 0,0 l/m 7,6 km/h (2 Bft) SW 225 -4,9 C 5,3 C
08.04.2012 13:41 7,0 C 42 % 1015,1 hPa 0,0 l/m 4,0 km/h (1 Bft) W-NW 292 -5,0 C 7,0 C
08.04.2012 13:46 7,2 C 41 % 1015,0 hPa 0,0 l/m 6,5 km/h (2 Bft) W-NW 292 -5,2 C 6,1 C
08.04.2012 13:51 7,3 C 40 % 1015,0 hPa 0,0 l/m 5,0 km/h (1 Bft) NO 45 -5,4 C 6,7 C
08.04.2012 13:56 7,4 C 39 % 1015,1 hPa 0,0 l/m 1,4 km/h (1 Bft) NO 45 -5,6 C 7,4 C
08.04.2012 14:01 7,2 C 39 % 1015,0 hPa 0,0 l/m 3,2 km/h (1 Bft) W-SW 247 -5,8 C 7,2 C
08.04.2012 14:06 7,2 C 40 % 1015,0 hPa 0,0 l/m 5,8 km/h (2 Bft) NO 45 -5,5 C 6,3 C
08.04.2012 14:11 7,1 C 40 % 1015,1 hPa 0,0 l/m 7,2 km/h (2 Bft) N-NW 337 -5,6 C 5,8 C
08.04.2012 14:16 6,9 C 39 % 1014,9 hPa 0,0 l/m 2,5 km/h (1 Bft) O-NO 67 -6,1 C 6,9 C
08.04.2012 14:21 6,8 C 39 % 1015,0 hPa 0,0 l/m 4,0 km/h (1 Bft) W-NW 292 -6,2 C 6,8 C
08.04.2012 14:26 6,8 C 38 % 1015,0 hPa 0,0 l/m 2,5 km/h (1 Bft) N-NW 337 -6,5 C 6,8 C
08.04.2012 14:31 6,9 C 37 % 1015,0 hPa 0,0 l/m 2,2 km/h (1 Bft) SO 135 -6,8 C 6,9 C
08.04.2012 14:36 7,2 C 38 % 1014,8 hPa 0,0 l/m 2,2 km/h (1 Bft) SO 135 -6,1 C 7,2 C
08.04.2012 14:41 7,6 C 39 % 1014,8 hPa 0,0 l/m 9,7 km/h (2 Bft) W-SW 247 -5,4 C 5,8 C
08.04.2012 14:46 8,1 C 39 % 1014,9 hPa 0,0 l/m 10,8 km/h (2 Bft) W-NW 292 -5,0 C 6,2 C
08.04.2012 14:51 8,4 C 38 % 1014,8 hPa 0,0 l/m 5,8 km/h (2 Bft) SW 225 -5,1 C 7,7 C
08.04.2012 14:56 8,7 C 38 % 1014,8 hPa 0,0 l/m 6,8 km/h (2 Bft) SW 225 -4,8 C 7,8 C
08.04.2012 15:01 8,9 C 38 % 1014,8 hPa 0,0 l/m 4,7 km/h (1 Bft) W 270 -4,6 C 8,6 C
08.04.2012 15:06 8,9 C 38 % 1014,7 hPa 0,0 l/m 15,8 km/h (3 Bft) W-SW 247 -4,6 C 6,5 C
08.04.2012 15:11 8,9 C 37 % 1014,7 hPa 0,0 l/m 9,7 km/h (2 Bft) W-SW 247 -5,0 C 7,4 C
08.04.2012 15:16 8,9 C 37 % 1014,7 hPa 0,0 l/m 11,5 km/h (2 Bft) SW 225 -5,0 C 7,1 C
08.04.2012 15:21 8,9 C 37 % 1014,6 hPa 0,0 l/m 5,4 km/h (1 Bft) SW 225 -5,0 C 8,4 C
08.04.2012 15:26 9,1 C 37 % 1014,7 hPa 0,0 l/m 13,3 km/h (3 Bft) W-NW 292 -4,8 C 7,0 C
08.04.2012 15:31 9,1 C 36 % 1014,7 hPa 0,0 l/m 8,6 km/h (2 Bft) W 270 -5,2 C 7,8 C
08.04.2012 15:36 9,2 C 36 % 1014,6 hPa 0,0 l/m 6,5 km/h (2 Bft) SW 225 -5,1 C 8,4 C
08.04.2012 15:41 9,3 C 36 % 1014,7 hPa 0,0 l/m 5,0 km/h (1 Bft) NO 45 -5,0 C 9,0 C
08.04.2012 15:46 8,9 C 34 % 1014,5 hPa 0,0 l/m 2,5 km/h (1 Bft) NO 45 -6,1 C 8,9 C
08.04.2012 15:51 8,8 C 34 % 1014,5 hPa 0,0 l/m 0,0 km/h (0 Bft) W-SW 247 -6,2 C 8,8 C
08.04.2012 15:56 8,9 C 35 % 1014,5 hPa 0,0 l/m 1,1 km/h (1 Bft) S-SO 157 -5,7 C 8,9 C
08.04.2012 16:01 9,1 C 34 % 1014,5 hPa 0,0 l/m 5,4 km/h (1 Bft) NW 315 -5,9 C 8,6 C
08.04.2012 16:06 9,1 C 34 % 1014,4 hPa 0,0 l/m 2,5 km/h (1 Bft) S 180 -5,9 C 9,1 C
08.04.2012 16:11 9,2 C 35 % 1014,4 hPa 0,0 l/m 9,7 km/h (2 Bft) SW 225 -5,4 C 7,7 C
08.04.2012 16:16 9,4 C 34 % 1014,5 hPa 0,0 l/m 2,5 km/h (1 Bft) W-NW 292 -5,6 C 9,4 C
08.04.2012 16:21 9,4 C 35 % 1014,4 hPa 0,0 l/m 2,5 km/h (1 Bft) W-SW 247 -5,3 C 9,4 C
08.04.2012 16:26 9,4 C 34 % 1014,4 hPa 0,0 l/m 4,3 km/h (1 Bft) N-NW 337 -5,6 C 9,4 C
08.04.2012 16:31 9,5 C 35 % 1014,3 hPa 0,0 l/m 2,9 km/h (1 Bft) N-NW 337 -5,2 C 9,5 C
08.04.2012 16:36 9,6 C 35 % 1014,5 hPa 0,0 l/m 11,2 km/h (2 Bft) W-SW 247 -5,1 C 8,0 C
08.04.2012 16:41 9,7 C 34 % 1014,5 hPa 0,0 l/m 5,0 km/h (1 Bft) W-SW 247 -5,4 C 9,4 C
08.04.2012 16:46 9,6 C 35 % 1014,5 hPa 0,0 l/m 5,0 km/h (1 Bft) S-SW 202 -5,1 C 9,3 C
08.04.2012 16:51 9,6 C 35 % 1014,3 hPa 0,0 l/m 7,2 km/h (2 Bft) SW 225 -5,1 C 8,7 C
08.04.2012 16:56 9,4 C 35 % 1014,4 hPa 0,0 l/m 10,4 km/h (2 Bft) W 270 -5,3 C 7,8 C
08.04.2012 17:01 9,1 C 35 % 1014,4 hPa 0,0 l/m 3,6 km/h (1 Bft) W-NW 292 -5,5 C 9,1 C
08.04.2012 17:06 9,1 C 35 % 1014,5 hPa 0,0 l/m 8,3 km/h (2 Bft) W-NW 292 -5,5 C 7,9 C
08.04.2012 17:11 9,1 C 36 % 1014,6 hPa 0,0 l/m 5,4 km/h (1 Bft) W 270 -5,2 C 8,6 C
08.04.2012 17:16 8,9 C 36 % 1014,6 hPa 0,0 l/m 7,9 km/h (2 Bft) W-SW 247 -5,3 C 7,7 C
08.04.2012 17:21 8,9 C 36 % 1014,4 hPa 0,0 l/m 1,8 km/h (1 Bft) S-SW 202 -5,3 C 8,9 C
08.04.2012 17:26 8,8 C 36 % 1014,5 hPa 0,0 l/m 0,0 km/h (0 Bft) SW 225 -5,4 C 8,8 C
08.04.2012 17:31 8,7 C 35 % 1014,5 hPa 0,0 l/m 0,0 km/h (0 Bft) O-NO 67 -5,9 C 8,7 C
08.04.2012 17:36 8,5 C 35 % 1014,3 hPa 0,0 l/m 0,0 km/h (0 Bft) NO 45 -6,1 C 8,5 C
08.04.2012 17:41 8,3 C 36 % 1014,3 hPa 0,0 l/m 0,0 km/h (0 Bft) W 270 -5,9 C 8,3 C
08.04.2012 17:46 8,3 C 36 % 1014,4 hPa 0,0 l/m 6,5 km/h (2 Bft) W-NW 292 -5,9 C 7,4 C
08.04.2012 17:51 8,3 C 37 % 1014,4 hPa 0,0 l/m 4,0 km/h (1 Bft) W-NW 292 -5,5 C 8,3 C
08.04.2012 17:56 8,5 C 37 % 1014,4 hPa 0,0 l/m 9,7 km/h (2 Bft) W 270 -5,3 C 6,9 C
08.04.2012 18:01 8,4 C 37 % 1014,4 hPa 0,0 l/m 2,9 km/h (1 Bft) W 270 -5,4 C 8,4 C
08.04.2012 18:06 8,2 C 38 % 1014,3 hPa 0,0 l/m 2,9 km/h (1 Bft) S-SW 202 -5,3 C 8,2 C
08.04.2012 18:11 7,9 C 38 % 1014,4 hPa 0,0 l/m 4,3 km/h (1 Bft) W-NW 292 -5,5 C 7,9 C
08.04.2012 18:16 7,9 C 38 % 1014,3 hPa 0,0 l/m 3,6 km/h (1 Bft) W-SW 247 -5,5 C 7,9 C
08.04.2012 18:21 7,9 C 39 % 1014,3 hPa 0,0 l/m 3,6 km/h (1 Bft) W-SW 247 -5,2 C 7,9 C
08.04.2012 18:26 8,2 C 39 % 1014,2 hPa 0,0 l/m 0,0 km/h (0 Bft) W-NW 292 -4,9 C 8,2 C
08.04.2012 18:31 8,3 C 38 % 1014,2 hPa 0,0 l/m 0,0 km/h (0 Bft) W-SW 247 -5,2 C 8,3 C
08.04.2012 18:36 8,4 C 38 % 1014,2 hPa 0,0 l/m 0,0 km/h (0 Bft) W-SW 247 -5,1 C 8,4 C
08.04.2012 18:41 8,5 C 38 % 1014,2 hPa 0,0 l/m 5,0 km/h (1 Bft) W 270 -5,0 C 8,1 C
08.04.2012 18:46 8,5 C 38 % 1014,1 hPa 0,0 l/m 7,6 km/h (2 Bft) W-SW 247 -5,0 C 7,3 C
08.04.2012 18:51 8,4 C 38 % 1014,4 hPa 0,0 l/m 3,2 km/h (1 Bft) SW 225 -5,1 C 8,4 C
08.04.2012 18:56 8,3 C 38 % 1014,4 hPa 0,0 l/m 7,6 km/h (2 Bft) W 270 -5,2 C 7,1 C
08.04.2012 19:01 8,2 C 38 % 1014,4 hPa 0,0 l/m 13,0 km/h (3 Bft) W-SW 247 -5,3 C 6,0 C
08.04.2012 19:06 8,2 C 39 % 1014,5 hPa 0,0 l/m 8,3 km/h (2 Bft) W-SW 247 -4,9 C 6,8 C
08.04.2012 19:11 8,1 C 39 % 1014,5 hPa 0,0 l/m 11,9 km/h (2 Bft) W-SW 247 -5,0 C 6,0 C
08.04.2012 19:16 8,2 C 38 % 1014,5 hPa 0,0 l/m 8,6 km/h (2 Bft) W-SW 247 -5,3 C 6,8 C
08.04.2012 19:21 8,2 C 38 % 1014,6 hPa 0,0 l/m 5,8 km/h (2 Bft) W 270 -5,3 C 7,5 C
08.04.2012 19:26 8,2 C 38 % 1014,3 hPa 0,0 l/m 3,2 km/h (1 Bft) W 270 -5,3 C 8,2 C
08.04.2012 19:31 8,1 C 39 % 1014,3 hPa 0,0 l/m 1,4 km/h (1 Bft) W 270 -5,0 C 8,1 C
08.04.2012 19:36 7,8 C 39 % 1014,3 hPa 0,0 l/m 3,2 km/h (1 Bft) W-SW 247 -5,3 C 7,8 C
08.04.2012 19:41 7,6 C 40 % 1014,2 hPa 0,0 l/m 3,2 km/h (1 Bft) SW 225 -5,1 C 7,6 C
08.04.2012 19:46 7,3 C 40 % 1014,4 hPa 0,0 l/m 0,0 km/h (0 Bft) S-SW 202 -5,4 C 7,3 C
08.04.2012 19:51 7,2 C 41 % 1014,4 hPa 0,0 l/m 0,0 km/h (0 Bft) S-SW 202 -5,2 C 7,2 C
08.04.2012 19:56 7,0 C 42 % 1014,3 hPa 0,0 l/m 0,0 km/h (0 Bft) SW 225 -5,0 C 7,0 C
08.04.2012 20:01 6,8 C 42 % 1014,4 hPa 0,0 l/m 0,0 km/h (0 Bft) S 180 -5,2 C 6,8 C
08.04.2012 20:06 6,7 C 43 % 1014,3 hPa 0,0 l/m 1,4 km/h (1 Bft) S-SO 157 -5,0 C 6,7 C
08.04.2012 20:11 6,5 C 43 % 1014,3 hPa 0,0 l/m 0,0 km/h (0 Bft) S-SW 202 -5,2 C 6,5 C
08.04.2012 20:16 6,3 C 44 % 1014,4 hPa 0,0 l/m 0,0 km/h (0 Bft) S-SO 157 -5,0 C 6,3 C
08.04.2012 20:21 6,1 C 44 % 1014,3 hPa 0,0 l/m 0,0 km/h (0 Bft) S-SO 157 -5,2 C 6,1 C
08.04.2012 20:26 5,9 C 44 % 1014,3 hPa 0,0 l/m 2,2 km/h (1 Bft) S-SO 157 -5,4 C 5,9 C
08.04.2012 20:31 5,8 C 45 % 1014,3 hPa 0,0 l/m 3,2 km/h (1 Bft) S-SO 157 -5,2 C 5,8 C
08.04.2012 20:36 5,6 C 46 % 1014,2 hPa 0,0 l/m 2,9 km/h (1 Bft) S-SO 157 -5,1 C 5,6 C
08.04.2012 20:41 5,4 C 46 % 1014,1 hPa 0,0 l/m 0,0 km/h (0 Bft) S-SO 157 -5,3 C 5,4 C
08.04.2012 20:46 5,3 C 46 % 1014,2 hPa 0,0 l/m 0,0 km/h (0 Bft) S-SO 157 -5,4 C 5,3 C
08.04.2012 20:51 5,2 C 47 % 1014,2 hPa 0,0 l/m 0,0 km/h (0 Bft) S-SO 157 -5,2 C 5,2 C
08.04.2012 20:56 5,1 C 47 % 1014,1 hPa 0,0 l/m 2,2 km/h (1 Bft) S-SO 157 -5,3 C 5,1 C
08.04.2012 21:01 5,0 C 47 % 1014,1 hPa 0,0 l/m 1,1 km/h (1 Bft) S-SO 157 -5,4 C 5,0 C
08.04.2012 21:06 4,9 C 48 % 1014,1 hPa 0,0 l/m 2,5 km/h (1 Bft) S 180 -5,2 C 4,9 C
08.04.2012 21:11 4,8 C 48 % 1013,9 hPa 0,0 l/m 1,4 km/h (1 Bft) SO 135 -5,3 C 4,8 C
08.04.2012 21:16 4,7 C 48 % 1014,0 hPa 0,0 l/m 2,5 km/h (1 Bft) S-SO 157 -5,4 C 4,7 C
08.04.2012 21:21 4,6 C 49 % 1013,8 hPa 0,0 l/m 4,3 km/h (1 Bft) S-SO 157 -5,2 C 4,6 C
08.04.2012 21:26 4,4 C 49 % 1014,0 hPa 0,0 l/m 4,0 km/h (1 Bft) S-SO 157 -5,4 C 4,4 C
08.04.2012 21:31 4,3 C 50 % 1014,0 hPa 0,0 l/m 4,3 km/h (1 Bft) S 180 -5,2 C 4,3 C
08.04.2012 21:36 4,1 C 50 % 1014,0 hPa 0,0 l/m 0,0 km/h (0 Bft) S-SO 157 -5,4 C 4,1 C
08.04.2012 21:41 4,1 C 50 % 1014,0 hPa 0,0 l/m 0,0 km/h (0 Bft) S-SO 157 -5,4 C 4,1 C
08.04.2012 21:46 3,9 C 51 % 1013,9 hPa 0,0 l/m 2,9 km/h (1 Bft) S 180 -5,3 C 3,9 C
08.04.2012 21:51 3,8 C 51 % 1013,9 hPa 0,0 l/m 5,0 km/h (1 Bft) S-SW 202 -5,4 C 2,7 C
08.04.2012 21:56 3,7 C 51 % 1013,9 hPa 0,0 l/m 2,2 km/h (1 Bft) S-SO 157 -5,5 C 3,7 C
08.04.2012 22:01 3,6 C 51 % 1013,9 hPa 0,0 l/m 4,0 km/h (1 Bft) S-SO 157 -5,6 C 3,6 C
08.04.2012 22:06 3,5 C 52 % 1013,9 hPa 0,0 l/m 0,0 km/h (0 Bft) S-SO 157 -5,4 C 3,5 C
08.04.2012 22:11 3,4 C 52 % 1013,8 hPa 0,0 l/m 1,8 km/h (1 Bft) S-SO 157 -5,5 C 3,4 C
08.04.2012 22:16 3,3 C 52 % 1013,8 hPa 0,0 l/m 5,0 km/h (1 Bft) S-SW 202 -5,6 C 2,2 C
08.04.2012 22:21 3,3 C 52 % 1013,7 hPa 0,0 l/m 5,4 km/h (1 Bft) S 180 -5,6 C 2,0 C
08.04.2012 22:26 3,2 C 52 % 1013,8 hPa 0,0 l/m 2,5 km/h (1 Bft) S-SO 157 -5,7 C 3,2 C
08.04.2012 22:31 3,1 C 53 % 1013,7 hPa 0,0 l/m 7,2 km/h (2 Bft) S 180 -5,5 C 1,1 C
08.04.2012 22:36 3,1 C 53 % 1013,8 hPa 0,0 l/m 4,0 km/h (1 Bft) S-SW 202 -5,5 C 3,1 C
08.04.2012 22:41 2,9 C 53 % 1013,6 hPa 0,0 l/m 4,3 km/h (1 Bft) S-SO 157 -5,7 C 2,9 C
08.04.2012 22:46 2,9 C 54 % 1013,7 hPa 0,0 l/m 1,8 km/h (1 Bft) S-SO 157 -5,5 C 2,9 C
08.04.2012 22:51 2,8 C 54 % 1013,7 hPa 0,0 l/m 0,0 km/h (0 Bft) S 180 -5,6 C 2,8 C
08.04.2012 22:56 2,6 C 54 % 1013,7 hPa 0,0 l/m 4,7 km/h (1 Bft) S 180 -5,8 C 1,5 C
08.04.2012 23:01 2,6 C 55 % 1013,5 hPa 0,0 l/m 4,3 km/h (1 Bft) S-SO 157 -5,5 C 2,6 C
08.04.2012 23:06 2,5 C 55 % 1013,4 hPa 0,0 l/m 7,2 km/h (2 Bft) S 180 -5,6 C 0,4 C
08.04.2012 23:11 2,4 C 55 % 1013,4 hPa 0,0 l/m 5,8 km/h (2 Bft) S-SO 157 -5,7 C 0,8 C
08.04.2012 23:16 2,4 C 56 % 1013,5 hPa 0,0 l/m 4,0 km/h (1 Bft) S-SO 157 -5,5 C 2,4 C
08.04.2012 23:21 2,3 C 56 % 1013,2 hPa 0,0 l/m 1,8 km/h (1 Bft) S-SO 157 -5,6 C 2,3 C
08.04.2012 23:26 2,1 C 56 % 1013,4 hPa 0,0 l/m 3,6 km/h (1 Bft) S-SO 157 -5,7 C 2,1 C
08.04.2012 23:31 2,1 C 57 % 1013,4 hPa 0,0 l/m 4,0 km/h (1 Bft) S 180 -5,5 C 2,1 C
08.04.2012 23:36 1,9 C 57 % 1013,2 hPa 0,0 l/m 4,7 km/h (1 Bft) S-SO 157 -5,7 C 0,7 C
08.04.2012 23:41 1,9 C 58 % 1013,3 hPa 0,0 l/m 7,6 km/h (2 Bft) S-SW 202 -5,5 C -0,4 C
08.04.2012 23:46 1,9 C 58 % 1013,2 hPa 0,0 l/m 3,2 km/h (1 Bft) S-SO 157 -5,5 C 1,9 C
08.04.2012 23:51 1,9 C 58 % 1013,1 hPa 0,0 l/m 3,2 km/h (1 Bft) S-SO 157 -5,5 C 1,9 C
08.04.2012 23:56 1,8 C 59 % 1013,1 hPa 0,0 l/m 5,8 km/h (2 Bft) S 180 -5,3 C 0,1 C
_ Min-Zeit 06:31 15:46 00:01 - 00:01 - - 14:31 07:11
Minimum _ -2,1 C 34 % 1008,8 hPa - 0,0 km/h (0 Bft) - - -6,8 C -4,5 C
_ Max-Zeit 16:41 07:16 13:41 00:01 15:06 - - 10:01 16:31
Maximum _ 9,7 C 79 % 1015,1 hPa 0,0 l/m 15,8 km/h
W-SW (3 Bft)
- - -2,3 C 9,5 C
Durchschnitt _ 3,5 C 57 % 1013,0 hPa #0,0 l/m 4,3 km/h (1 Bft) NW - -4,8 C 2,8 C
(c) by David Heller